Terminal Aerodrome Forecast
Issued by NWS

Home | Current Version | Previous Version | Text Only | Print | Product List | Glossary On
Versions: 1 2 3 4 5 6 7 8 9 10 11 12 13 14
453
FTUS43 KMPX 282327
TAFRNH
TAF
KRNH 282327Z 2900/2924 22009KT P6SM VCTS SCT025CB BKN070
     FM290300 25007KT P6SM SCT025 BKN035
     FM291400 29008KT P6SM SCT008 BKN030
     FM291800 32006KT P6SM SCT015 BKN035=

USA.gov is the U.S. government's official web portal to all federal, state and local government web resources and services.